Time;durP1;ratioP1;P1;durP2;ratioP2;P2;SDS_P1;SDS_P2;PMS_P1;PMS_P2;Temp;Humidity;BMP_temperature;BMP_pressure;BME280_temperature;BME280_humidity;BME280_pressure;Samples;Min_cycle;Max_cycle;Signal;HPM_P1;HPM_P2
2023/05/29 00:00:23;;;;;;;3.27;2.37;;;;;;;16.83;66.21;95400.28;4360438;32;20201;-65
2023/05/29 00:02:50;;;;;;;1.97;1.87;;;;;;;16.72;66.43;95404.47;4349460;32;20220;-65
2023/05/29 00:05:16;;;;;;;2.83;2.63;;;;;;;16.61;66.87;95400.62;4345253;32;20177;-65
2023/05/29 00:07:42;;;;;;;4.50;4.00;;;;;;;16.63;67.67;95390.34;4350407;32;20242;-65
2023/05/29 00:10:09;;;;;;;3.90;3.60;;;;;;;16.45;68.12;95393.16;4359714;32;20208;-65
2023/05/29 00:12:35;;;;;;;2.60;2.50;;;;;;;16.53;66.29;95390.75;4369172;32;20231;-65
2023/05/29 00:15:01;;;;;;;4.93;3.60;;;;;;;16.56;66.93;95390.09;4369368;32;20299;-65
2023/05/29 00:17:26;;;;;;;3.50;3.20;;;;;;;16.47;66.61;95393.62;4349140;32;20227;-65
2023/05/29 00:19:51;;;;;;;7.67;3.40;;;;;;;16.35;67.20;95388.22;4355462;32;20285;-65
2023/05/29 00:22:17;;;;;;;3.97;3.07;;;;;;;16.54;66.53;95393.09;4373785;32;20173;-65
2023/05/29 00:24:42;;;;;;;3.07;2.87;;;;;;;16.65;65.50;95404.22;4358406;32;20196;-65
2023/05/29 00:27:09;;;;;;;1.77;1.77;;;;;;;16.35;66.39;95404.31;4354316;32;20229;-65
2023/05/29 00:29:36;;;;;;;3.80;3.37;;;;;;;16.25;65.33;95396.66;4360859;32;20181;-65
2023/05/29 00:32:01;;;;;;;5.17;2.97;;;;;;;16.41;66.45;95394.97;4360807;32;20196;-65
2023/05/29 00:34:27;;;;;;;2.67;2.47;;;;;;;16.42;66.61;95396.50;4367086;32;20219;-65
2023/05/29 00:36:54;;;;;;;3.03;2.83;;;;;;;16.21;66.64;95394.97;4354671;32;20236;-65
2023/05/29 00:39:20;;;;;;;1.83;1.83;;;;;;;16.21;66.91;95390.37;4375962;32;20188;-65
2023/05/29 00:41:45;;;;;;;2.30;2.17;;;;;;;16.23;67.16;95396.19;4362934;32;20256;-65
2023/05/29 00:44:10;;;;;;;3.00;2.87;;;;;;;16.00;66.45;95393.03;4360206;32;20185;-65
2023/05/29 00:46:36;;;;;;;3.60;3.30;;;;;;;16.03;68.46;95386.25;4357352;32;20216;-65
2023/05/29 00:49:04;;;;;;;2.57;2.37;;;;;;;16.21;67.28;95390.37;4367073;32;20185;-65
2023/05/29 00:51:31;;;;;;;8.60;2.47;;;;;;;16.32;67.37;95391.56;4353927;32;20191;-65
2023/05/29 00:53:57;;;;;;;2.83;2.47;;;;;;;15.99;67.13;95386.16;4355242;32;20202;-65
2023/05/29 00:56:22;;;;;;;2.67;2.47;;;;;;;16.17;67.89;95386.03;4373437;32;20287;-65
2023/05/29 00:58:49;;;;;;;2.47;2.30;;;;;;;16.10;67.42;95383.84;4356492;32;20259;-65
2023/05/29 01:01:17;;;;;;;1.90;1.80;;;;;;;15.77;67.71;95386.47;4346348;32;20193;-65
2023/05/29 01:03:43;;;;;;;3.53;3.10;;;;;;;15.82;70.05;95381.69;4363461;32;20185;-65
2023/05/29 01:06:10;;;;;;;3.70;2.57;;;;;;;15.66;70.43;95377.22;4358977;32;20221;-65
2023/05/29 01:08:35;;;;;;;2.70;2.50;;;;;;;15.52;69.96;95377.44;4358122;32;20246;-65
2023/05/29 01:11:08;;;;;;;2.97;2.77;;;;;;;15.64;69.90;95387.47;4360291;32;20176;-65
2023/05/29 01:13:35;;;;;;;3.90;3.57;;;;;;;15.73;70.00;95389.00;4351196;32;20172;-65
2023/05/29 01:16:14;;;;;;;4.30;2.40;;;;;;;15.91;69.48;95388.88;4361314;32;20199;-65
2023/05/29 01:18:47;;;;;;;3.23;3.03;;;;;;;15.78;68.63;95388.81;4352362;32;20189;-65
2023/05/29 01:21:47;;;;;;;2.50;2.30;;;;;;;15.59;69.60;95396.44;4369055;32;20268;-65
2023/05/29 01:24:28;;;;;;;3.40;3.20;;;;;;;15.73;70.43;95396.22;4351084;32;20177;-65
2023/05/29 01:27:16;;;;;;;2.23;2.03;;;;;;;15.81;70.35;95390.03;4352383;32;20181;-65
2023/05/29 01:29:43;;;;;;;3.50;3.20;;;;;;;15.93;69.72;95392.00;4351136;32;20190;-65
2023/05/29 01:32:09;;;;;;;10.77;3.97;;;;;;;15.88;69.13;95389.53;4375797;32;20180;-65
2023/05/29 01:34:34;;;;;;;3.10;2.20;;;;;;;15.81;70.09;95398.84;4346130;32;20221;-64
2023/05/29 01:37:00;;;;;;;2.50;2.30;;;;;;;15.65;70.35;95392.50;4357698;32;20209;-65
2023/05/29 01:39:26;;;;;;;1.97;1.87;;;;;;;15.41;70.85;95389.59;4356991;32;20189;-65
2023/05/29 01:41:52;;;;;;;2.00;1.90;;;;;;;15.47;71.56;95390.97;4383452;32;20180;-65
2023/05/29 01:44:19;;;;;;;3.00;2.73;;;;;;;15.65;70.57;95397.06;4374509;32;20189;-65
2023/05/29 01:46:45;;;;;;;1.93;1.83;;;;;;;15.66;70.92;95391.38;4361170;32;20211;-65
2023/05/29 01:49:12;;;;;;;1.87;1.77;;;;;;;15.58;71.15;95386.88;4365379;32;20207;-65
2023/05/29 01:51:40;;;;;;;2.10;2.00;;;;;;;15.41;71.78;95389.59;4355852;32;20185;-65
2023/05/29 01:54:06;;;;;;;2.57;2.37;;;;;;;15.44;70.23;95394.28;4346704;32;20185;-65
2023/05/29 01:56:31;;;;;;;3.70;2.50;;;;;;;15.42;70.93;95383.13;4367835;32;20289;-65
2023/05/29 01:58:58;;;;;;;3.30;2.87;;;;;;;15.18;70.72;95391.72;4368146;32;20249;-65
2023/05/29 02:01:24;;;;;;;2.20;2.10;;;;;;;15.30;71.82;95388.41;4371429;32;20271;-65
2023/05/29 02:03:51;;;;;;;3.17;2.00;;;;;;;15.34;71.71;95395.47;4361427;32;20189;-65
2023/05/29 02:06:16;;;;;;;2.27;2.17;;;;;;;15.42;71.33;95388.47;4355015;32;20234;-65
2023/05/29 02:08:42;;;;;;;2.90;2.70;;;;;;;15.24;72.03;95401.16;4369906;32;20296;-65
2023/05/29 02:11:07;;;;;;;2.03;1.93;;;;;;;15.11;71.76;95397.59;4360548;32;20198;-65
2023/05/29 02:13:32;;;;;;;2.30;2.10;;;;;;;15.22;71.23;95392.66;4360872;32;20184;-65
2023/05/29 02:15:58;;;;;;;2.17;2.07;;;;;;;15.17;71.26;95392.06;4366278;32;20204;-65
2023/05/29 02:18:23;;;;;;;1.50;1.50;;;;;;;15.08;73.04;95381.41;4349549;32;20231;-65
2023/05/29 02:20:49;;;;;;;2.20;2.00;;;;;;;15.04;72.52;95389.28;4363460;32;20251;-65
2023/05/29 02:23:15;;;;;;;2.13;2.03;;;;;;;15.24;71.80;95382.44;4347158;32;20200;-65
2023/05/29 02:25:40;;;;;;;1.87;1.77;;;;;;;15.21;72.39;95385.75;4370823;32;20185;-65
2023/05/29 02:28:06;;;;;;;4.13;3.17;;;;;;;15.08;72.29;95381.41;4371625;32;20214;-65
2023/05/29 02:30:31;;;;;;;2.40;2.20;;;;;;;15.13;71.76;95379.34;4352274;32;20232;-65
2023/05/29 02:32:57;;;;;;;1.30;1.30;;;;;;;15.26;71.71;95382.13;4373050;32;20259;-65
2023/05/29 02:35:22;;;;;;;1.90;1.80;;;;;;;14.97;72.35;95370.25;4364547;32;20208;-65
2023/05/29 02:37:51;;;;;;;2.20;2.00;;;;;;;14.94;73.10;95372.81;4357075;32;20189;-65
2023/05/29 02:40:17;;;;;;;6.33;3.13;;;;;;;15.06;72.78;95384.38;4358178;32;20188;-65
2023/05/29 02:42:43;;;;;;;3.13;1.97;;;;;;;15.06;71.95;95391.63;4361115;32;20230;-65
2023/05/29 02:45:08;;;;;;;2.40;2.23;;;;;;;15.02;72.14;95380.78;4372759;32;20222;-65
2023/05/29 02:47:35;;;;;;;2.10;2.00;;;;;;;14.89;73.28;95379.09;4364582;32;20185;-65
2023/05/29 02:50:00;;;;;;;2.43;2.23;;;;;;;14.97;72.85;95385.50;4350104;32;20225;-65
2023/05/29 02:52:27;;;;;;;2.40;2.20;;;;;;;15.07;71.74;95385.97;4366258;32;20199;-65
2023/05/29 02:54:54;;;;;;;2.37;2.17;;;;;;;15.06;71.54;95381.72;4356158;32;20181;-65
2023/05/29 02:57:19;;;;;;;2.67;2.43;;;;;;;15.22;71.31;95379.28;4360821;32;20232;-65
2023/05/29 02:59:45;;;;;;;2.30;2.20;;;;;;;15.25;71.72;95375.97;4366554;32;20184;-65
2023/05/29 03:02:11;;;;;;;1.87;1.60;;;;;;;15.25;71.84;95377.88;4372633;32;20281;-65
2023/05/29 03:04:36;;;;;;;2.80;2.70;;;;;;;15.12;71.45;95385.78;4372300;32;20177;-65
2023/05/29 03:07:01;;;;;;;5.00;3.00;;;;;;;15.12;71.15;95385.78;4370458;32;20173;-65
2023/05/29 03:09:27;;;;;;;1.97;1.87;;;;;;;15.01;71.97;95384.56;4362065;32;20200;-65
2023/05/29 03:11:52;;;;;;;1.83;1.40;;;;;;;15.04;72.83;95381.25;4350519;32;20181;-65
2023/05/29 03:14:18;;;;;;;2.00;1.90;;;;;;;14.98;72.10;95379.84;4358643;32;20215;-64
2023/05/29 03:16:44;;;;;;;2.57;2.47;;;;;;;14.99;73.65;95384.09;4362483;32;20181;-65
2023/05/29 03:19:10;;;;;;;2.00;1.77;;;;;;;14.96;73.60;95382.09;4366267;32;20239;-65
2023/05/29 03:21:35;;;;;;;2.57;2.47;;;;;;;15.14;73.03;95385.47;4360953;32;20181;-65
2023/05/29 03:24:02;;;;;;;2.20;1.50;;;;;;;14.77;72.37;95387.75;4365919;32;20176;-65
2023/05/29 03:26:28;;;;;;;2.33;2.03;;;;;;;14.60;73.22;95392.34;4360645;32;20177;-65
2023/05/29 03:28:53;;;;;;;2.47;2.13;;;;;;;14.99;72.92;95394.78;4374416;32;20399;-65
2023/05/29 03:31:19;;;;;;;1.73;1.63;;;;;;;14.94;73.47;95391.50;4368336;32;20280;-64
2023/05/29 03:33:45;;;;;;;1.30;1.30;;;;;;;14.90;73.48;95394.03;4355723;32;20186;-65
2023/05/29 03:36:10;;;;;;;1.33;1.33;;;;;;;14.94;72.34;95386.16;4356462;32;20246;-65
2023/05/29 03:38:36;;;;;;;3.30;3.00;;;;;;;15.10;72.69;95384.53;4374984;32;20173;-64
2023/05/29 03:41:01;;;;;;;1.87;1.77;;;;;;;15.17;73.53;95389.41;4377046;32;20181;-65
2023/05/29 03:43:27;;;;;;;2.10;2.00;;;;;;;15.00;73.69;95390.22;4357924;32;20189;-65
2023/05/29 03:45:52;;;;;;;2.83;2.73;;;;;;;15.17;73.95;95397.41;4369484;32;20236;-65
2023/05/29 03:48:17;;;;;;;3.07;2.63;;;;;;;15.01;74.83;95403.25;4362380;32;20185;-65
2023/05/29 03:50:44;;;;;;;3.00;2.80;;;;;;;14.88;75.76;95396.25;4346111;32;20264;-65
2023/05/29 03:53:09;;;;;;;3.20;3.00;;;;;;;14.96;75.57;95400.00;4363197;32;20235;-65
2023/05/29 03:55:35;;;;;;;2.17;2.07;;;;;;;15.11;75.29;95404.81;4351225;32;20195;-64
2023/05/29 03:58:00;;;;;;;7.60;2.87;;;;;;;15.00;75.94;95407.03;4367860;32;20185;-65
2023/05/29 04:00:25;;;;;;;2.67;2.47;;;;;;;15.03;75.60;95401.06;4359518;32;20176;-65
2023/05/29 04:02:51;;;;;;;4.20;3.43;;;;;;;15.05;75.63;95398.84;4356604;32;20185;-65
2023/05/29 04:05:16;;;;;;;3.50;2.30;;;;;;;15.01;75.73;95411.28;4362864;32;20181;-65
2023/05/29 04:07:41;;;;;;;12.10;2.53;;;;;;;14.92;75.65;95410.53;4369063;32;20185;-65
2023/05/29 04:10:07;;;;;;;3.63;3.43;;;;;;;14.87;75.18;95409.91;4354447;32;20193;-65
2023/05/29 04:12:33;;;;;;;1.93;1.83;;;;;;;14.98;75.86;95414.59;4370069;32;20263;-65
2023/05/29 04:14:59;;;;;;;2.73;1.93;;;;;;;15.08;76.14;95414.25;4363544;32;20185;-64
2023/05/29 04:17:24;;;;;;;3.43;3.13;;;;;;;15.11;74.79;95408.28;4353321;32;20292;-65
2023/05/29 04:19:50;;;;;;;2.33;2.17;;;;;;;15.27;74.89;95407.75;4363867;32;20177;-65
2023/05/29 04:22:15;;;;;;;10.23;3.03;;;;;;;15.26;74.84;95425.66;4364852;32;20270;-65
2023/05/29 04:24:41;;;;;;;5.67;3.20;;;;;;;15.29;75.15;95425.03;4351486;32;20252;-65
2023/05/29 04:27:08;;;;;;;3.03;2.87;;;;;;;15.03;75.51;95429.66;4341092;32;20186;-65
2023/05/29 04:29:34;;;;;;;3.87;2.77;;;;;;;15.00;75.36;95433.75;4372322;32;20180;-64
2023/05/29 04:32:03;;;;;;;3.80;3.27;;;;;;;15.02;75.87;95434.22;4370729;32;20189;-65
2023/05/29 04:34:30;;;;;;;2.07;1.97;;;;;;;15.16;75.78;95435.94;4342596;32;20223;-65
2023/05/29 04:36:58;;;;;;;6.43;2.70;;;;;;;15.24;74.89;95441.22;4357915;32;20189;-65
2023/05/29 04:39:24;;;;;;;3.13;2.83;;;;;;;15.35;75.05;95447.03;4357352;32;20208;-64
2023/05/29 04:41:50;;;;;;;3.33;2.33;;;;;;;15.25;74.87;95439.34;4339816;32;20240;-65
2023/05/29 04:44:15;;;;;;;2.33;2.10;;;;;;;15.44;75.19;95437.06;4346652;32;20207;-65
2023/05/29 04:46:43;;;;;;;6.40;2.87;;;;;;;15.46;74.67;95443.66;4364229;32;20230;-65
2023/05/29 04:49:09;;;;;;;3.53;2.17;;;;;;;15.41;74.73;95453.75;4350685;32;20180;-65
2023/05/29 04:51:36;;;;;;;3.50;3.20;;;;;;;15.50;75.78;95449.16;4344388;32;20232;-64
2023/05/29 04:54:02;;;;;;;4.47;3.40;;;;;;;15.54;73.97;95452.78;4355988;32;20213;-65
2023/05/29 04:56:28;;;;;;;3.73;2.93;;;;;;;15.42;73.66;95452.66;4344052;32;20182;-65
2023/05/29 04:58:53;;;;;;;2.83;2.63;;;;;;;15.47;74.36;95457.81;4370689;32;20200;-65
2023/05/29 05:01:18;;;;;;;2.60;2.07;;;;;;;15.33;74.50;95460.72;4367881;32;20279;-65
2023/05/29 05:03:44;;;;;;;2.27;2.17;;;;;;;15.35;73.44;95457.72;4344216;32;20196;-65
2023/05/29 05:06:10;;;;;;;2.63;2.43;;;;;;;15.46;73.04;95464.28;4369167;32;20252;-65
2023/05/29 05:08:36;;;;;;;6.40;2.97;;;;;;;15.61;74.75;95458.41;4353315;32;20176;-65
2023/05/29 05:11:01;;;;;;;2.23;2.13;;;;;;;15.51;73.98;95464.09;4367844;32;20181;-65
2023/05/29 05:13:27;;;;;;;4.73;2.20;;;;;;;15.62;73.48;95462.66;4364811;32;20242;-66
2023/05/29 05:15:52;;;;;;;2.17;2.07;;;;;;;15.54;74.24;95452.78;4351105;32;20234;-65
2023/05/29 05:18:18;;;;;;;3.27;2.87;;;;;;;15.56;73.27;95455.94;4358453;32;20181;-65
2023/05/29 05:20:44;;;;;;;7.67;2.87;;;;;;;15.58;73.51;95459.09;4354074;32;20306;-66
2023/05/29 05:23:10;;;;;;;2.37;2.27;;;;;;;15.71;74.01;95468.00;4361670;32;20233;-65
2023/05/29 05:25:35;;;;;;;2.60;2.10;;;;;;;15.75;73.56;95463.56;4363819;32;20192;-64
2023/05/29 05:28:03;;;;;;;2.20;2.10;;;;;;;15.95;73.32;95470.88;4358632;32;20243;-65
2023/05/29 05:30:28;;;;;;;1.83;1.77;;;;;;;15.94;72.22;95468.50;4358453;32;20191;-65
2023/05/29 05:32:53;;;;;;;4.17;2.77;;;;;;;15.91;72.24;95469.16;4353778;32;20291;-65
2023/05/29 05:35:19;;;;;;;2.20;2.00;;;;;;;15.89;71.64;95474.03;4362981;32;20304;-65
2023/05/29 05:37:44;;;;;;;2.63;2.07;;;;;;;15.94;71.02;95468.50;4355167;32;20266;-66
2023/05/29 05:40:10;;;;;;;2.80;2.47;;;;;;;16.02;71.64;95470.34;4351773;32;20217;-65
2023/05/29 05:42:35;;;;;;;2.33;2.13;;;;;;;16.01;70.85;95476.78;4360909;32;20199;-65
2023/05/29 05:45:01;;;;;;;2.67;2.53;;;;;;;15.75;70.77;95472.38;4364251;32;20223;-66
2023/05/29 05:47:27;;;;;;;4.10;2.87;;;;;;;16.05;71.14;95472.38;4348885;32;20204;-65
2023/05/29 05:49:53;;;;;;;3.03;2.83;;;;;;;16.11;70.28;95471.06;4363583;32;20224;-65
2023/05/29 05:52:19;;;;;;;2.13;2.03;;;;;;;15.98;68.92;95480.13;4363900;32;20193;-65
2023/05/29 05:54:44;;;;;;;3.00;2.30;;;;;;;15.91;67.35;95480.63;4371239;32;20226;-65
2023/05/29 05:57:10;;;;;;;2.47;2.27;;;;;;;15.92;67.37;95479.53;4352295;32;20216;-65
2023/05/29 05:59:35;;;;;;;2.30;2.20;;;;;;;16.03;66.96;95485.28;4366464;32;20218;-65
2023/05/29 06:02:01;;;;;;;1.57;1.27;;;;;;;16.03;66.14;95485.28;4357147;32;20181;-65
2023/05/29 06:04:27;;;;;;;2.07;1.97;;;;;;;15.94;65.94;95489.91;4368939;32;20185;-65
2023/05/29 06:06:52;;;;;;;1.23;1.23;;;;;;;16.02;66.60;95483.72;4364588;32;20210;-65
2023/05/29 06:09:17;;;;;;;1.60;1.50;;;;;;;16.01;nan;95490.16;4343616;32;20197;-65
2023/05/29 06:11:43;;;;;;;3.20;2.50;;;;;;;16.12;66.69;95483.34;4360347;32;20177;-65
2023/05/29 06:14:08;;;;;;;5.53;2.43;;;;;;;16.05;67.08;95489.22;4356943;32;20239;-65
2023/05/29 06:16:34;;;;;;;1.80;1.70;;;;;;;16.28;66.19;95491.59;4368993;32;20221;-65
2023/05/29 06:18:59;;;;;;;1.23;1.23;;;;;;;16.31;66.15;95491.72;4374740;32;20204;-65
2023/05/29 06:21:25;;;;;;;2.43;2.30;;;;;;;16.38;67.09;95488.56;4362235;32;20272;-65
2023/05/29 06:23:50;;;;;;;3.20;3.00;;;;;;;16.41;67.68;95491.38;4353767;32;20204;-64
2023/05/29 06:26:16;;;;;;;3.40;1.90;;;;;;;16.39;67.57;95490.13;4360667;32;20173;-65
2023/05/29 06:28:41;;;;;;;3.17;1.90;;;;;;;16.61;67.26;95489.03;4355306;32;20256;-65
2023/05/29 06:31:07;;;;;;;1.80;1.70;;;;;;;16.72;67.16;95495.56;4343656;32;20209;-65
2023/05/29 06:33:32;;;;;;;1.13;1.13;;;;;;;16.76;68.05;95493.81;4371081;32;20173;-66
2023/05/29 06:35:57;;;;;;;3.53;2.73;;;;;;;16.77;67.04;95493.47;4355597;32;20205;-66
2023/05/29 06:38:23;;;;;;;2.17;2.07;;;;;;;16.95;65.45;95499.47;4349754;32;20201;-66
2023/05/29 06:40:48;;;;;;;2.03;1.93;;;;;;;16.91;65.71;95495.09;4353012;32;20199;-66
2023/05/29 06:43:13;;;;;;;1.83;1.73;;;;;;;17.00;65.30;95503.84;4359628;32;20182;-65
2023/05/29 06:45:40;;;;;;;2.07;1.87;;;;;;;17.10;64.59;95496.16;4371800;32;20244;-65
2023/05/29 06:48:05;;;;;;;1.80;1.70;;;;;;;16.98;64.29;95495.34;4347574;32;20235;-65
2023/05/29 06:50:31;;;;;;;1.20;1.20;;;;;;;17.27;64.07;95497.88;4351819;32;20181;-66
2023/05/29 06:52:56;;;;;;;0.97;0.97;;;;;;;17.36;62.69;95503.97;4366782;32;20185;-66
2023/05/29 06:55:22;;;;;;;1.63;1.53;;;;;;;17.57;62.41;95503.09;4343747;32;20197;-65
2023/05/29 06:57:47;;;;;;;2.03;1.93;;;;;;;17.69;61.92;95503.94;4350496;32;20197;-65
2023/05/29 07:00:13;;;;;;;1.57;1.47;;;;;;;17.76;61.42;95506.84;4364070;32;20203;-66
2023/05/29 07:02:38;;;;;;;1.67;1.57;;;;;;;17.83;61.70;95512.47;4361739;32;20244;-65
2023/05/29 07:05:04;;;;;;;1.33;1.27;;;;;;;17.82;61.21;95504.75;4368457;32;20177;-65
2023/05/29 07:07:29;;;;;;;1.27;1.27;;;;;;;17.94;61.18;95509.31;4365334;32;20177;-65
2023/05/29 07:09:55;;;;;;;1.90;1.80;;;;;;;18.19;60.96;95508.22;4361303;32;20325;-63
2023/05/29 07:12:21;;;;;;;2.63;1.80;;;;;;;18.48;58.41;95507.97;4359351;32;20239;-63
2023/05/29 07:14:48;;;;;;;1.37;1.27;;;;;;;18.19;57.27;95514.38;4364686;32;20185;-63
2023/05/29 07:17:14;;;;;;;4.97;2.03;;;;;;;18.35;57.77;95511.78;4366288;32;20181;-63
2023/05/29 07:19:40;;;;;;;2.03;1.47;;;;;;;18.32;59.00;95512.44;4355657;32;20178;-63
2023/05/29 07:22:05;;;;;;;2.33;2.03;;;;;;;18.24;61.23;95513.38;4356261;32;20192;-63
2023/05/29 07:24:30;;;;;;;1.93;1.83;;;;;;;18.27;59.30;95512.69;4368909;32;20225;-63
2023/05/29 07:26:56;;;;;;;1.93;1.90;;;;;;;18.39;57.95;95518.03;4369038;32;20192;-63
2023/05/29 07:29:23;;;;;;;1.50;1.40;;;;;;;18.41;58.39;95510.44;4358988;32;20192;-63
2023/05/29 07:31:49;;;;;;;1.70;1.60;;;;;;;18.49;57.60;95516.81;4373289;32;20169;-63
2023/05/29 07:34:14;;;;;;;2.07;1.97;;;;;;;18.41;57.32;95531.91;4350350;32;20192;-63
2023/05/29 07:37:05;;;;;;;2.40;2.27;;;;;;;18.42;55.75;95522.75;4360797;32;20228;-63
2023/05/29 07:39:34;;;;;;;2.67;1.33;;;;;;;18.46;56.13;95528.22;4355585;32;20181;-63
2023/05/29 07:42:03;;;;;;;1.63;1.53;;;;;;;18.42;56.74;95533.50;4374541;32;20202;-63
2023/05/29 07:44:29;;;;;;;1.70;1.60;;;;;;;18.53;56.84;95533.78;4358194;32;20233;-64
2023/05/29 07:46:55;;;;;;;7.47;2.67;;;;;;;18.54;56.15;95521.94;4351763;32;20204;-64
2023/05/29 07:49:20;;;;;;;2.27;1.93;;;;;;;18.53;57.55;95539.16;4365796;32;20239;-64
2023/05/29 07:51:46;;;;;;;1.47;1.43;;;;;;;18.67;57.49;95536.16;4353138;32;20199;-63
2023/05/29 07:54:11;;;;;;;2.77;2.53;;;;;;;18.68;56.67;95527.78;4350892;32;20180;-64
2023/05/29 07:56:37;;;;;;;1.57;1.37;;;;;;;18.70;56.96;95528.22;4376285;32;20199;-63
2023/05/29 07:59:03;;;;;;;1.67;1.57;;;;;;;18.68;57.24;95529.69;4364435;32;20187;-64
2023/05/29 08:01:28;;;;;;;1.00;1.00;;;;;;;18.76;57.44;95534.13;4356345;32;20181;-63
2023/05/29 08:03:54;;;;;;;1.33;1.23;;;;;;;18.64;57.15;95526.09;4364011;32;20185;-63
2023/05/29 08:06:19;;;;;;;1.30;1.30;;;;;;;18.79;57.15;95534.22;4354218;32;20250;-63
2023/05/29 08:08:44;;;;;;;8.90;2.07;;;;;;;18.82;57.69;95532.75;4348579;32;20252;-63
2023/05/29 08:11:10;;;;;;;1.30;1.30;;;;;;;18.84;58.02;95522.47;4375875;32;20224;-63
2023/05/29 08:13:36;;;;;;;1.20;1.20;;;;;;;18.90;58.09;95523.78;4354270;32;20188;-63
2023/05/29 08:16:02;;;;;;;2.63;2.40;;;;;;;18.89;59.22;95530.28;4366658;32;20207;-63
2023/05/29 08:18:31;;;;;;;4.33;2.70;;;;;;;18.93;58.22;95528.47;4355430;32;20235;-66
2023/05/29 08:20:57;;;;;;;8.13;2.53;;;;;;;18.99;63.68;95529.78;4355145;32;20275;-67
2023/05/29 08:23:22;;;;;;;2.20;1.97;;;;;;;19.07;64.11;95531.56;4358949;32;20184;-66
2023/05/29 08:25:48;;;;;;;2.50;2.30;;;;;;;19.16;64.67;95534.87;4366195;32;20204;-67
2023/05/29 08:28:14;;;;;;;2.23;2.13;;;;;;;19.18;64.08;95527.25;4350905;32;20193;-66
2023/05/29 08:30:40;;;;;;;1.80;1.70;;;;;;;19.26;62.09;95530.16;4368682;32;20215;-67
2023/05/29 08:33:06;;;;;;;1.27;1.27;;;;;;;19.28;61.31;95536.75;4363491;32;20185;-65
2023/05/29 08:35:32;;;;;;;1.97;1.87;;;;;;;19.25;61.80;95536.66;4365699;32;20216;-67
2023/05/29 08:37:58;;;;;;;2.83;2.67;;;;;;;19.26;60.66;95533.63;4358468;32;20251;-67
2023/05/29 08:40:23;;;;;;;1.90;1.80;;;;;;;19.28;60.34;95530.59;4359109;32;20248;-67
2023/05/29 08:43:22;;;;;;;1.27;1.17;;;;;;;19.31;60.98;95536.06;4363706;32;20188;-67
2023/05/29 08:45:52;;;;;;;1.87;1.73;;;;;;;19.39;60.47;95531.66;4292511;32;20194;-67
2023/05/29 08:48:20;;;;;;;1.50;1.23;;;;;;;19.38;60.42;95532.78;4352168;32;20193;-66
2023/05/29 08:50:48;;;;;;;1.30;1.30;;;;;;;19.44;59.58;95531.41;4347643;32;20201;-67
2023/05/29 08:53:18;;;;;;;1.93;1.83;;;;;;;19.41;59.84;95524.00;4366242;32;20244;-67
2023/05/29 08:55:45;;;;;;;1.97;1.87;;;;;;;19.44;60.00;95532.19;4358303;32;20280;-67
2023/05/29 08:58:11;;;;;;;1.57;1.50;;;;;;;19.46;59.89;95537.22;4365710;32;20243;-67
2023/05/29 09:00:36;;;;;;;1.97;1.87;;;;;;;19.46;59.22;95534.53;4372386;32;20196;-65
2023/05/29 09:03:03;;;;;;;1.63;1.53;;;;;;;19.59;59.27;95536.06;4355383;32;20260;-67
2023/05/29 09:05:29;;;;;;;1.70;1.60;;;;;;;19.55;59.40;95535.97;4359004;32;20181;-67
2023/05/29 09:07:55;;;;;;;2.87;2.00;;;;;;;19.52;58.73;95538.59;4367272;32;20185;-67
2023/05/29 09:10:22;;;;;;;2.43;2.23;;;;;;;19.55;58.71;95535.19;4368250;32;20248;-67
2023/05/29 09:12:50;;;;;;;1.47;1.40;;;;;;;19.67;57.87;95545.91;4352748;32;20200;-66
2023/05/29 09:15:23;;;;;;;1.37;1.37;;;;;;;19.67;57.60;95547.81;4361678;32;20181;-68
2023/05/29 09:17:53;;;;;;;4.07;2.33;;;;;;;19.65;57.64;95540.06;4358957;32;20315;-67
2023/05/29 09:20:19;;;;;;;1.93;1.73;;;;;;;19.63;58.26;95531.56;4354039;32;20181;-66
2023/05/29 09:23:05;;;;;;;0.90;0.90;;;;;;;19.68;58.07;95538.59;4352026;32;20254;-67
2023/05/29 09:25:32;;;;;;;2.30;1.63;;;;;;;19.73;55.88;95541.81;4364682;32;20283;-67
2023/05/29 09:28:05;;;;;;;2.97;1.67;;;;;;;19.79;55.17;95535.03;4360273;32;20204;-67
2023/05/29 09:30:31;;;;;;;2.00;1.90;;;;;;;19.86;55.66;95534.44;4357495;32;20298;-67
2023/05/29 09:33:00;;;;;;;2.00;1.90;;;;;;;19.86;56.63;95534.44;4369727;32;20199;-67
2023/05/29 09:35:26;;;;;;;1.33;1.33;;;;;;;19.87;56.18;95536.78;4351799;32;20188;-67
2023/05/29 09:37:52;;;;;;;0.90;0.90;;;;;;;19.96;55.90;95533.91;4368193;32;20211;-67
2023/05/29 09:40:17;;;;;;;1.00;1.00;;;;;;;20.13;55.29;95532.78;4372169;32;20192;-67
2023/05/29 09:42:43;;;;;;;1.60;1.50;;;;;;;20.15;55.44;95528.63;4357021;32;20222;-67
2023/05/29 09:45:08;;;;;;;1.77;1.43;;;;;;;20.20;55.60;95527.56;4346824;32;20197;-67
2023/05/29 09:47:35;;;;;;;1.30;1.30;;;;;;;20.30;54.82;95532.44;4376319;32;20188;-67
2023/05/29 09:50:00;;;;;;;1.33;1.33;;;;;;;20.29;53.53;95530.84;4346311;32;21513;-67
2023/05/29 09:52:30;;;;;;;1.13;1.13;;;;;;;20.28;53.64;95525.81;4352555;32;20189;-67
2023/05/29 09:54:56;;;;;;;1.13;1.13;;;;;;;20.36;50.91;95541.81;4374956;32;20234;-67
2023/05/29 09:57:23;;;;;;;1.60;1.30;;;;;;;20.42;50.63;95537.72;4363300;32;20252;-67
2023/05/29 09:59:51;;;;;;;1.93;1.83;;;;;;;20.54;49.40;95537.63;4361212;32;20195;-67
2023/05/29 10:02:17;;;;;;;1.77;1.70;;;;;;;20.55;50.21;95533.03;4353725;32;20176;-67
2023/05/29 10:04:44;;;;;;;1.20;1.20;;;;;;;20.49;49.91;95529.81;4353493;32;20173;-67
2023/05/29 10:07:20;;;;;;;3.03;1.47;;;;;;;20.47;47.97;95542.84;4351465;32;20274;-67
2023/05/29 10:09:50;;;;;;;1.17;1.17;;;;;;;20.66;48.32;95536.72;4372553;32;20282;-67
2023/05/29 10:12:20;;;;;;;1.33;1.20;;;;;;;20.86;47.68;95540.22;4368659;32;20173;-66
2023/05/29 10:14:49;;;;;;;1.37;1.37;;;;;;;20.74;47.68;95526.87;4353500;32;20193;-67
2023/05/29 10:17:18;;;;;;;1.53;1.43;;;;;;;20.85;46.86;95528.66;4371578;32;20170;-67
2023/05/29 10:19:46;;;;;;;1.17;1.17;;;;;;;20.90;47.38;95524.91;4360386;32;20205;-67
2023/05/29 10:22:14;;;;;;;0.97;0.97;;;;;;;21.14;46.52;95531.94;4360601;32;20207;-67
2023/05/29 10:24:40;;;;;;;1.17;1.17;;;;;;;21.04;46.20;95519.00;4362384;32;20190;-67
2023/05/29 10:27:05;;;;;;;1.10;1.00;;;;;;;21.18;45.75;95522.78;4369183;32;20238;-67
2023/05/29 10:29:53;;;;;;;1.73;1.63;;;;;;;21.26;45.35;95508.31;4366702;32;20184;-67
2023/05/29 10:32:43;;;;;;;0.73;0.73;;;;;;;21.34;44.85;95519.25;4371426;32;20213;-67
2023/05/29 10:35:14;;;;;;;1.47;1.20;;;;;;;21.33;43.57;95517.69;4361761;32;20207;-67
2023/05/29 10:37:54;;;;;;;1.03;0.97;;;;;;;21.30;43.93;95523.78;4359338;32;20181;-67
2023/05/29 10:40:25;;;;;;;1.80;1.70;;;;;;;21.32;43.93;95526.91;4361649;32;20195;-67
2023/05/29 10:43:00;;;;;;;1.37;1.37;;;;;;;21.24;44.29;95520.59;4368295;32;20185;-67
2023/05/29 10:45:31;;;;;;;1.90;1.27;;;;;;;21.21;44.43;95516.69;4351869;32;20195;-67
2023/05/29 10:48:17;;;;;;;1.70;1.60;;;;;;;21.21;44.65;95526.69;4347062;32;20201;-67
2023/05/29 10:50:46;;;;;;;1.57;1.47;;;;;;;21.15;44.66;95517.31;4344745;32;20181;-67
2023/05/29 10:53:30;;;;;;;1.40;1.40;;;;;;;21.15;45.28;95523.50;4363882;32;20184;-66
2023/05/29 10:55:56;;;;;;;2.00;1.90;;;;;;;21.22;43.63;95512.84;4367250;32;20177;-67
2023/05/29 10:58:24;;;;;;;1.63;1.37;;;;;;;21.37;43.37;95515.84;4362258;32;20258;-67
2023/05/29 11:00:50;;;;;;;1.17;1.17;;;;;;;21.42;43.30;95520.94;4347018;32;20196;-67
2023/05/29 11:03:21;;;;;;;1.00;1.00;;;;;;;21.43;44.05;95517.88;4354632;32;20248;-67
2023/05/29 11:05:56;;;;;;;1.30;1.20;;;;;;;21.46;43.79;95516.38;4365655;32;20188;-67
2023/05/29 11:08:36;;;;;;;0.90;0.90;;;;;;;21.47;43.31;95517.94;4350145;32;20181;-67
2023/05/29 11:11:02;;;;;;;0.83;0.83;;;;;;;21.47;43.50;95518.72;4346788;32;20275;-67
2023/05/29 11:13:35;;;;;;;1.80;1.70;;;;;;;21.37;43.73;95513.94;4358005;32;20186;-67
2023/05/29 11:16:25;;;;;;;1.07;1.07;;;;;;;21.43;44.03;95511.69;4370524;32;20287;-67
2023/05/29 11:18:52;;;;;;;1.20;1.10;;;;;;;21.54;43.71;95518.09;4354598;32;20264;-67
2023/05/29 11:21:53;;;;;;;0.80;0.80;;;;;;;21.47;44.33;95518.72;4348152;32;20227;-67
2023/05/29 11:24:26;;;;;;;1.30;1.30;;;;;;;21.29;44.50;95519.53;4352531;32;20172;-66
2023/05/29 11:26:55;;;;;;;1.87;1.57;;;;;;;21.35;44.36;95516.19;4353136;32;20240;-67
2023/05/29 11:29:38;;;;;;;1.27;1.27;;;;;;;21.57;43.95;95520.84;4360556;32;20202;-67
2023/05/29 11:32:09;;;;;;;0.80;0.80;;;;;;;21.54;43.26;95523.47;4360098;32;20176;-67
2023/05/29 11:34:38;;;;;;;0.93;0.93;;;;;;;21.45;43.22;95520.22;4359359;32;20192;-67